Time;durP1;ratioP1;P1;durP2;ratioP2;P2;SDS_P1;SDS_P2;PMS_P1;PMS_P2;Temp;Humidity;BMP_temperature;BMP_pressure;BME280_temperature;BME280_humidity;BME280_pressure;Samples;Min_cycle;Max_cycle;Signal;HPM_P1;HPM_P2
2022/06/25 00:02:17;;;;;;;3.87;3.55;;;;;;;19.40;61.16;99596.23;1553700;91;21127;-84
2022/06/25 00:07:29;;;;;;;5.85;3.92;;;;;;;19.34;61.31;99598.02;1558274;91;21550;-72
2022/06/25 00:09:55;;;;;;;5.55;3.45;;;;;;;19.30;61.40;99600.58;1563496;91;21081;-71
2022/06/25 00:12:32;;;;;;;8.50;3.67;;;;;;;19.31;61.33;99599.47;1553900;90;20959;-73
2022/06/25 00:15:02;;;;;;;5.80;3.77;;;;;;;19.27;61.59;99596.30;1554368;91;21047;-67
2022/06/25 00:17:29;;;;;;;3.87;3.35;;;;;;;19.22;61.69;99598.59;1553249;92;21845;-68
2022/06/25 00:19:57;;;;;;;10.28;4.67;;;;;;;19.21;61.64;99603.80;1539996;92;21105;-70
2022/06/25 00:22:24;;;;;;;3.47;3.17;;;;;;;19.18;61.84;99599.75;1572866;90;21092;-75
2022/06/25 00:24:50;;;;;;;7.10;4.83;;;;;;;19.12;61.98;99594.19;1585566;90;21132;-74
2022/06/25 00:27:17;;;;;;;5.72;3.33;;;;;;;19.09;62.07;99598.06;1576620;90;21041;-74
2022/06/25 00:29:44;;;;;;;10.15;3.83;;;;;;;19.10;61.87;99600.49;1585355;90;21261;-78
2022/06/25 00:32:11;;;;;;;3.77;3.47;;;;;;;19.13;61.70;99599.09;1567360;90;21649;-76
2022/06/25 00:34:38;;;;;;;3.05;2.83;;;;;;;19.15;61.57;99597.65;1563506;91;21062;-71
2022/06/25 00:37:08;;;;;;;4.10;3.15;;;;;;;19.18;61.46;99598.97;1563307;91;21053;-71
2022/06/25 00:39:35;;;;;;;4.65;3.15;;;;;;;19.20;61.35;99600.81;1552790;90;21162;-71
2022/06/25 00:42:08;;;;;;;4.03;3.33;;;;;;;19.22;61.28;99589.60;1568933;90;22371;-71
2022/06/25 00:44:36;;;;;;;3.58;3.27;;;;;;;19.20;61.37;99593.19;1563718;91;21046;-71
2022/06/25 00:47:06;;;;;;;3.05;2.85;;;;;;;19.16;61.24;99593.81;1568726;90;21057;-69
2022/06/25 00:49:33;;;;;;;10.63;3.45;;;;;;;19.16;61.36;99595.18;1584702;90;21057;-69
2022/06/25 00:52:02;;;;;;;4.28;3.10;;;;;;;19.14;61.33;99598.75;1569588;90;21130;-71
2022/06/25 00:54:31;;;;;;;3.70;3.40;;;;;;;19.13;61.32;99593.08;1527444;92;21627;-71
2022/06/25 00:56:58;;;;;;;4.12;3.55;;;;;;;19.15;61.27;99605.02;1533296;92;21074;-72
2022/06/25 00:59:27;;;;;;;5.47;3.25;;;;;;;19.15;61.46;99600.92;1522123;93;21206;-72
2022/06/25 01:01:54;;;;;;;3.52;3.22;;;;;;;19.13;61.38;99600.45;1535419;93;21140;-73
2022/06/25 01:04:20;;;;;;;3.37;3.08;;;;;;;19.13;61.47;99608.62;1578635;90;21085;-74
2022/06/25 01:06:48;;;;;;;3.98;3.62;;;;;;;19.12;61.44;99606.45;1551119;91;21992;-71
2022/06/25 01:09:15;;;;;;;3.70;3.25;;;;;;;19.13;61.28;99610.80;1553418;91;21064;-73
2022/06/25 01:11:42;;;;;;;5.65;3.87;;;;;;;19.12;61.27;99611.09;1550371;91;21054;-70
2022/06/25 01:14:09;;;;;;;5.28;3.22;;;;;;;19.11;61.40;99610.84;1541314;91;21034;-69
2022/06/25 01:16:37;;;;;;;3.65;3.05;;;;;;;19.07;61.51;99605.20;1557301;91;21069;-70
2022/06/25 01:19:08;;;;;;;4.85;3.67;;;;;;;19.06;61.70;99605.51;1537982;91;21195;-71
2022/06/25 01:21:35;;;;;;;3.30;3.00;;;;;;;19.03;61.68;99603.41;1557262;91;21126;-69
2022/06/25 01:24:03;;;;;;;4.97;3.45;;;;;;;19.00;61.78;99604.00;1574656;91;21090;-72
2022/06/25 01:26:34;;;;;;;3.85;2.80;;;;;;;18.97;62.01;99607.35;1550576;91;21574;-75
2022/06/25 01:29:01;;;;;;;4.62;4.10;;;;;;;18.92;62.21;99609.64;1561400;91;21203;-71
2022/06/25 01:31:30;;;;;;;4.72;2.65;;;;;;;18.83;62.49;99607.39;1534658;93;21214;-69
2022/06/25 01:33:57;;;;;;;3.35;2.98;;;;;;;18.79;62.71;99614.57;1539778;91;20998;-73
2022/06/25 01:36:23;;;;;;;3.20;2.90;;;;;;;18.75;62.94;99612.20;1566761;90;21088;-72
2022/06/25 01:38:50;;;;;;;3.20;3.00;;;;;;;18.67;63.21;99604.18;1557494;91;21031;-74
2022/06/25 01:41:18;;;;;;;6.78;3.15;;;;;;;18.62;63.48;99607.56;1572006;91;21142;-73
2022/06/25 01:43:44;;;;;;;5.10;3.25;;;;;;;18.58;63.46;99605.20;1541791;92;21198;-73
2022/06/25 01:46:11;;;;;;;3.83;3.25;;;;;;;18.57;63.54;99610.39;1556926;92;21018;-74
2022/06/25 01:48:40;;;;;;;7.33;3.60;;;;;;;18.56;63.58;99608.22;1557195;92;21039;-72
2022/06/25 01:51:06;;;;;;;4.10;3.17;;;;;;;18.45;64.25;99610.08;1557274;92;21590;-73
2022/06/25 01:53:34;;;;;;;3.50;3.20;;;;;;;18.37;64.52;99614.30;1557024;91;21119;-74
2022/06/25 01:56:02;;;;;;;4.08;3.77;;;;;;;18.36;64.51;99616.80;1556921;91;21848;-73
2022/06/25 01:58:29;;;;;;;6.03;3.58;;;;;;;18.35;64.59;99620.63;1570139;91;21018;-72
2022/06/25 02:00:56;;;;;;;4.03;3.22;;;;;;;18.33;64.79;99620.11;1564788;90;21436;-73
2022/06/25 02:03:22;;;;;;;9.60;3.33;;;;;;;18.32;64.72;99622.57;1556994;91;21595;-73
2022/06/25 02:05:58;;;;;;;3.05;2.85;;;;;;;18.34;64.62;99623.64;1541252;92;21067;-73
2022/06/25 02:08:35;;;;;;;3.10;2.90;;;;;;;18.33;64.67;99617.38;1557046;91;21263;-72
2022/06/25 02:11:07;;;;;;;4.35;3.60;;;;;;;18.33;64.86;99619.30;1568064;91;21539;-73
2022/06/25 02:13:34;;;;;;;4.90;3.08;;;;;;;18.33;64.81;99616.58;1568027;90;21054;-71
2022/06/25 02:16:01;;;;;;;3.05;2.85;;;;;;;18.30;64.87;99617.45;1560517;90;21061;-72
2022/06/25 02:18:27;;;;;;;6.83;3.42;;;;;;;18.32;64.97;99621.80;1557122;91;21083;-73
2022/06/25 02:20:55;;;;;;;6.40;2.92;;;;;;;18.28;65.11;99621.02;1559180;91;21243;-72
2022/06/25 02:23:24;;;;;;;3.60;2.98;;;;;;;18.26;65.19;99631.97;1542430;92;21363;-73
2022/06/25 02:25:50;;;;;;;6.53;4.15;;;;;;;18.23;65.30;99624.39;1559276;91;21338;-73
2022/06/25 02:28:18;;;;;;;5.83;3.37;;;;;;;18.25;65.26;99631.71;1563871;90;21065;-72
2022/06/25 02:30:45;;;;;;;3.12;2.60;;;;;;;18.27;65.28;99633.01;1569374;90;21092;-73
2022/06/25 02:33:13;;;;;;;6.75;3.83;;;;;;;18.28;65.23;99622.38;1561884;90;21159;-74
2022/06/25 02:35:41;;;;;;;4.33;3.92;;;;;;;18.27;65.35;99633.59;1579597;90;21070;-72
2022/06/25 02:38:10;;;;;;;3.90;3.45;;;;;;;18.28;65.32;99630.55;1579743;90;21099;-73
2022/06/25 02:40:37;;;;;;;2.87;2.62;;;;;;;18.30;65.35;99630.25;1579459;90;21070;-74
2022/06/25 02:43:05;;;;;;;8.73;3.40;;;;;;;18.30;65.45;99635.70;1567733;90;21049;-73
2022/06/25 02:45:33;;;;;;;11.35;3.62;;;;;;;18.32;65.37;99634.05;1558650;91;21061;-72
2022/06/25 02:48:00;;;;;;;4.47;3.02;;;;;;;18.34;65.29;99633.17;1562027;90;21062;-73
2022/06/25 02:50:27;;;;;;;6.53;3.77;;;;;;;18.36;65.34;99635.05;1579577;90;21034;-73
2022/06/25 02:52:53;;;;;;;11.18;3.33;;;;;;;18.40;65.26;99632.78;1565132;90;21639;-72
2022/06/25 02:58:54;;;;;;;3.95;3.10;;;;;;;18.42;65.23;99631.91;1579563;90;21053;-74
2022/06/25 03:00:41;;;;;;;4.65;4.25;;;;;;;18.45;65.27;99631.32;1579819;90;21122;-75
2022/06/25 03:03:08;;;;;;;4.08;2.92;;;;;;;18.47;65.25;99633.17;1559574;90;21088;-73
2022/06/25 03:05:36;;;;;;;3.95;3.58;;;;;;;18.49;65.16;99635.05;1559819;91;21087;-73
2022/06/25 03:08:04;;;;;;;4.12;3.30;;;;;;;18.52;65.11;99626.26;1547235;90;21082;-73
2022/06/25 03:10:31;;;;;;;4.95;2.95;;;;;;;18.52;65.34;99631.70;1579398;90;21229;-75
2022/06/25 03:12:57;;;;;;;3.80;3.22;;;;;;;18.53;65.06;99634.72;1571213;90;21530;-73
2022/06/25 03:15:25;;;;;;;4.17;3.77;;;;;;;18.55;65.09;99636.59;1579382;90;21017;-76
2022/06/25 03:17:53;;;;;;;3.70;3.40;;;;;;;18.55;65.29;99636.59;1574520;90;21038;-74
2022/06/25 03:20:22;;;;;;;5.42;3.62;;;;;;;18.57;65.30;99634.91;1522570;90;21123;-76
2022/06/25 03:22:50;;;;;;;6.55;4.25;;;;;;;18.58;65.44;99636.53;1571916;90;21142;-75
2022/06/25 03:25:17;;;;;;;7.78;4.10;;;;;;;18.61;65.37;99648.17;1563548;91;21054;-75
2022/06/25 03:27:43;;;;;;;13.65;10.82;;;;;;;18.62;65.52;99644.34;1563774;91;21552;-76
2022/06/25 03:30:12;;;;;;;6.35;4.78;;;;;;;18.64;65.43;99654.39;1563341;91;21054;-77
2022/06/25 03:32:39;;;;;;;5.70;3.65;;;;;;;18.66;65.59;99648.88;1577448;90;21055;-76
2022/06/25 03:35:23;;;;;;;;;;;;;;;18.65;65.56;99642.39;1547814;92;21429;-77
2022/06/25 03:37:54;;;;;;;4.53;3.75;;;;;;;18.67;65.71;99645.60;1564405;91;20180;-72
2022/06/25 03:40:20;;;;;;;4.83;4.33;;;;;;;18.69;65.75;99648.84;1549885;91;21471;-72
2022/06/25 03:42:48;;;;;;;10.08;3.60;;;;;;;18.71;65.73;99640.59;1585489;90;21082;-72
2022/06/25 03:45:15;;;;;;;10.98;3.30;;;;;;;18.75;65.65;99641.38;1564928;90;21084;-73
2022/06/25 03:47:43;;;;;;;7.60;4.92;;;;;;;18.78;65.57;99643.48;1563697;91;21126;-71
2022/06/25 03:50:10;;;;;;;7.28;4.25;;;;;;;18.80;65.48;99642.63;1563392;91;21481;-72
2022/06/25 03:52:39;;;;;;;3.65;3.35;;;;;;;18.84;65.29;99645.80;1584940;90;21018;-72
2022/06/25 03:55:08;;;;;;;5.95;3.58;;;;;;;18.87;65.26;99650.63;1566813;90;21544;-72
2022/06/25 03:57:35;;;;;;;4.58;3.33;;;;;;;18.91;65.31;99653.55;1563426;91;21035;-71
2022/06/25 04:00:08;;;;;;;7.33;4.42;;;;;;;18.97;65.30;99668.68;1561272;90;21840;-72
2022/06/25 04:02:42;;;;;;;3.80;3.27;;;;;;;19.00;65.29;99661.25;1564338;91;21059;-71
2022/06/25 04:05:27;;;;;;;3.95;3.58;;;;;;;19.04;64.75;99660.33;1567406;90;21530;-72
2022/06/25 04:07:55;;;;;;;11.18;4.15;;;;;;;19.09;64.98;99662.94;1585430;90;21593;-72
2022/06/25 04:10:22;;;;;;;14.18;6.87;;;;;;;19.15;64.86;99669.09;1585586;90;21052;-71
2022/06/25 04:12:49;;;;;;;4.78;4.28;;;;;;;19.20;64.54;99674.44;1585708;90;21126;-71
2022/06/25 04:15:15;;;;;;;5.05;3.30;;;;;;;19.26;64.33;99679.22;1546193;91;21096;-73
2022/06/25 04:17:43;;;;;;;3.60;3.30;;;;;;;19.31;64.15;99672.29;1563507;91;21113;-74
2022/06/25 04:20:10;;;;;;;4.10;3.70;;;;;;;19.35;63.90;99670.00;1563500;91;21070;-74
2022/06/25 04:22:37;;;;;;;6.15;3.35;;;;;;;19.40;63.96;99672.61;1563376;90;21074;-72
2022/06/25 04:25:05;;;;;;;4.17;3.47;;;;;;;19.46;63.80;99671.42;1563307;91;21171;-73
2022/06/25 04:30:18;;;;;;;5.28;4.20;;;;;;;19.56;63.50;99673.09;1583478;90;21061;-74
2022/06/25 04:32:47;;;;;;;6.08;4.55;;;;;;;19.64;63.35;99681.09;1566533;90;21539;-74
2022/06/25 04:35:17;;;;;;;5.20;3.58;;;;;;;19.69;63.08;99676.88;1563395;91;21067;-73
2022/06/25 04:37:45;;;;;;;3.30;3.05;;;;;;;19.75;62.98;99682.47;1555252;90;22462;-74
2022/06/25 04:40:13;;;;;;;5.00;4.20;;;;;;;19.82;62.87;99689.64;1585314;90;21535;-71
2022/06/25 04:42:40;;;;;;;3.75;3.45;;;;;;;19.89;62.81;99692.75;1585635;90;20982;-72
2022/06/25 04:45:08;;;;;;;10.85;4.22;;;;;;;19.95;62.62;99695.61;1571759;90;21570;-73
2022/06/25 04:47:36;;;;;;;3.60;3.35;;;;;;;19.99;62.62;99696.05;1567929;90;21136;-72
2022/06/25 04:50:07;;;;;;;3.95;3.58;;;;;;;20.05;62.46;99704.88;1562056;90;21207;-72
2022/06/25 04:52:34;;;;;;;6.08;3.62;;;;;;;20.10;62.33;99700.66;1567118;90;21314;-70
2022/06/25 04:55:02;;;;;;;4.90;3.92;;;;;;;20.14;62.01;99711.23;1571623;90;21154;-72
2022/06/25 04:57:29;;;;;;;5.62;3.83;;;;;;;20.18;62.16;99719.05;1563066;90;21058;-71
2022/06/25 05:00:11;;;;;;;9.53;4.08;;;;;;;20.21;62.30;99725.79;1560478;91;21062;-71
2022/06/25 05:02:38;;;;;;;4.35;3.20;;;;;;;20.27;62.33;99726.73;1543823;91;21255;-74
2022/06/25 05:05:08;;;;;;;4.97;3.50;;;;;;;20.32;62.36;99725.81;1569452;90;21124;-74
2022/06/25 05:07:35;;;;;;;5.40;3.50;;;;;;;20.36;62.27;99720.77;1565033;90;21038;-74
2022/06/25 05:10:01;;;;;;;6.17;4.08;;;;;;;20.38;62.20;99721.25;1563466;91;21102;-74
2022/06/25 05:15:15;;;;;;;4.50;4.05;;;;;;;20.41;62.51;99726.66;1572954;90;22565;-73
2022/06/25 05:17:42;;;;;;;8.25;4.40;;;;;;;20.43;62.43;99722.48;1585359;90;21089;-71
2022/06/25 05:20:12;;;;;;;5.12;3.50;;;;;;;20.47;62.43;99721.31;1569281;90;20979;-72
2022/06/25 05:22:41;;;;;;;5.80;4.10;;;;;;;20.56;62.75;99716.70;1564535;91;21731;-73
2022/06/25 05:25:09;;;;;;;5.62;3.72;;;;;;;20.56;62.75;99716.70;1563147;91;21110;-74
2022/06/25 05:27:37;;;;;;;10.80;5.05;;;;;;;20.61;62.54;99715.19;1563464;91;21074;-74
2022/06/25 05:30:07;;;;;;;9.35;4.08;;;;;;;20.74;62.28;99725.76;1574143;90;21061;-76
2022/06/25 05:32:34;;;;;;;3.17;2.83;;;;;;;20.74;62.28;99725.76;1527982;91;21117;-73
2022/06/25 05:35:02;;;;;;;5.05;3.58;;;;;;;20.78;62.01;99717.97;1563361;90;21273;-75
2022/06/25 05:37:28;;;;;;;5.03;4.03;;;;;;;20.83;61.79;99722.49;1563327;91;21051;-73
2022/06/25 05:39:56;;;;;;;10.90;7.80;;;;;;;20.89;61.99;99726.70;1569651;90;21533;-72
2022/06/25 05:42:23;;;;;;;7.40;4.35;;;;;;;20.95;61.70;99728.73;1585600;90;20978;-75
2022/06/25 05:44:50;;;;;;;13.45;8.50;;;;;;;21.02;61.70;99736.70;1574611;90;21111;-75
2022/06/25 05:47:16;;;;;;;6.60;5.72;;;;;;;21.09;61.47;99731.59;1563523;91;21154;-75
2022/06/25 05:49:43;;;;;;;10.98;4.72;;;;;;;21.17;61.15;99734.12;1570207;90;21041;-73
2022/06/25 05:52:11;;;;;;;8.35;4.15;;;;;;;21.24;60.89;99738.57;1585441;90;21009;-74
2022/06/25 05:54:38;;;;;;;6.20;3.80;;;;;;;21.30;60.07;99731.23;1576648;90;21582;-73
2022/06/25 05:57:07;;;;;;;4.25;3.77;;;;;;;21.37;59.75;99739.55;1563418;90;21093;-73
2022/06/25 05:59:34;;;;;;;5.33;3.50;;;;;;;21.42;59.89;99740.20;1518080;93;21062;-74
2022/06/25 06:02:00;;;;;;;7.67;5.28;;;;;;;21.48;59.63;99741.66;1585903;90;21129;-74
2022/06/25 06:04:27;;;;;;;4.30;3.90;;;;;;;21.58;59.50;99741.33;1585524;90;21564;-72
2022/06/25 06:06:54;;;;;;;4.87;4.37;;;;;;;21.65;58.78;99736.75;1584828;90;21037;-73
2022/06/25 06:09:20;;;;;;;4.03;3.72;;;;;;;21.70;58.59;99738.77;1553069;90;21073;-75
2022/06/25 06:11:47;;;;;;;4.08;3.77;;;;;;;21.75;58.55;99741.91;1548850;91;21065;-75
2022/06/25 06:14:14;;;;;;;4.28;3.87;;;;;;;21.80;58.21;99745.85;1548734;92;21118;-72
2022/06/25 06:16:40;;;;;;;5.75;4.55;;;;;;;21.86;57.91;99745.12;1548746;91;21164;-75
2022/06/25 06:19:07;;;;;;;4.60;4.08;;;;;;;21.92;57.54;99742.48;1547791;91;21070;-74
2022/06/25 06:21:34;;;;;;;7.53;3.45;;;;;;;21.96;57.40;99741.53;1565164;90;21156;-71
2022/06/25 06:24:00;;;;;;;5.35;3.70;;;;;;;22.01;57.66;99747.41;1573778;91;21166;-75
2022/06/25 06:26:27;;;;;;;5.00;4.55;;;;;;;22.05;57.70;99746.44;1551789;91;21582;-73
2022/06/25 06:28:54;;;;;;;7.30;3.37;;;;;;;22.09;58.01;99741.91;1548968;91;21291;-74
2022/06/25 06:31:21;;;;;;;3.30;3.00;;;;;;;22.15;57.99;99746.10;1572685;91;21134;-78
2022/06/25 06:33:47;;;;;;;7.05;3.80;;;;;;;22.20;57.86;99741.58;1572617;91;21576;-74
2022/06/25 06:36:14;;;;;;;5.53;3.62;;;;;;;22.26;57.12;99747.10;1572570;91;21120;-75
2022/06/25 06:38:40;;;;;;;10.48;3.77;;;;;;;22.33;56.57;99749.59;1555219;91;21102;-79
2022/06/25 06:41:07;;;;;;;4.50;4.10;;;;;;;22.41;56.44;99750.70;1554658;91;21195;-74
2022/06/25 06:43:36;;;;;;;15.75;4.70;;;;;;;22.45;56.44;99746.16;1563839;91;21106;-76
2022/06/25 06:46:03;;;;;;;5.80;3.15;;;;;;;22.50;56.71;99750.91;1548619;91;21066;-78
2022/06/25 06:48:30;;;;;;;9.13;3.50;;;;;;;22.56;55.93;99746.87;1551081;91;21012;-74
2022/06/25 06:50:57;;;;;;;6.22;2.80;;;;;;;22.64;55.11;99741.70;1567363;91;21619;-74
2022/06/25 06:53:24;;;;;;;3.87;3.17;;;;;;;22.71;55.17;99746.92;1562712;91;21220;-74
2022/06/25 06:55:50;;;;;;;4.65;3.47;;;;;;;22.77;54.68;99743.44;1548852;92;21308;-73
2022/06/25 06:58:18;;;;;;;6.50;4.25;;;;;;;22.81;54.59;99743.82;1548653;92;21182;-76
2022/06/25 07:00:45;;;;;;;4.00;3.05;;;;;;;22.88;54.31;99741.35;1548847;91;21066;-74
2022/06/25 07:03:12;;;;;;;6.87;3.10;;;;;;;22.96;53.89;99747.38;1528806;92;21113;-74
2022/06/25 07:05:38;;;;;;;5.78;2.60;;;;;;;23.03;53.82;99743.53;1550808;91;21225;-76
2022/06/25 07:08:09;;;;;;;2.87;2.47;;;;;;;23.11;53.03;99747.39;1546646;92;21038;-75
2022/06/25 07:10:36;;;;;;;4.72;2.80;;;;;;;23.19;51.61;99748.45;1549115;91;21205;-76
2022/06/25 07:13:03;;;;;;;3.27;2.95;;;;;;;23.22;51.61;99743.67;1549105;91;21568;-74
2022/06/25 07:15:30;;;;;;;2.60;2.40;;;;;;;23.26;51.40;99758.36;1549665;92;21095;-73
2022/06/25 07:17:58;;;;;;;3.10;2.52;;;;;;;23.35;50.67;99756.36;1548194;91;21060;-75
2022/06/25 07:20:24;;;;;;;2.60;2.40;;;;;;;23.42;50.82;99753.88;1557682;91;21034;-73
2022/06/25 07:22:51;;;;;;;4.12;3.20;;;;;;;23.48;50.53;99748.46;1547213;91;21097;-73
2022/06/25 07:25:21;;;;;;;3.15;2.83;;;;;;;23.52;49.80;99759.58;1541954;91;21587;-73
2022/06/25 07:27:49;;;;;;;4.22;3.33;;;;;;;23.54;50.07;99758.69;1543652;93;21057;-75
2022/06/25 07:30:15;;;;;;;3.40;3.10;;;;;;;23.60;50.32;99756.76;1551721;91;21154;-73
2022/06/25 07:32:42;;;;;;;3.17;2.80;;;;;;;23.71;49.42;99751.67;1543295;91;21026;-72
2022/06/25 07:35:09;;;;;;;4.50;3.37;;;;;;;23.75;49.16;99758.09;1543696;93;21578;-72
2022/06/25 07:37:36;;;;;;;2.95;2.65;;;;;;;23.79;48.78;99759.84;1543691;92;21089;-72
2022/06/25 07:40:05;;;;;;;3.25;2.58;;;;;;;23.79;48.66;99757.66;1547901;91;21088;-75
2022/06/25 07:42:32;;;;;;;5.58;2.05;;;;;;;23.84;48.42;99754.70;1546481;92;22119;-74
2022/06/25 07:44:59;;;;;;;4.80;2.58;;;;;;;23.94;48.15;99757.61;1553171;92;21059;-72
2022/06/25 07:47:26;;;;;;;2.30;2.00;;;;;;;24.01;47.08;99756.52;1553092;91;21126;-73
2022/06/25 07:52:37;;;;;;;3.22;2.92;;;;;;;24.12;46.84;99756.34;1556267;91;21055;-75
2022/06/25 07:55:06;;;;;;;2.52;2.33;;;;;;;24.21;45.69;99753.77;1546753;92;21096;-71
2022/06/25 07:57:32;;;;;;;2.67;2.47;;;;;;;24.30;45.49;99755.85;1557662;90;21587;-74
2022/06/25 08:00:01;;;;;;;2.83;2.47;;;;;;;24.35;46.08;99757.58;1558715;91;21026;-73
2022/06/25 08:02:27;;;;;;;3.12;2.83;;;;;;;24.40;46.17;99753.81;1563785;90;21535;-74
2022/06/25 08:04:54;;;;;;;3.10;2.87;;;;;;;24.44;46.83;99758.30;1563743;90;21014;-75
2022/06/25 08:07:20;;;;;;;2.95;2.75;;;;;;;24.52;45.33;99755.20;1555078;91;21547;-76
2022/06/25 08:09:47;;;;;;;5.90;3.20;;;;;;;24.59;44.62;99756.83;1553668;91;21183;-75
2022/06/25 08:12:14;;;;;;;2.90;2.65;;;;;;;24.65;44.05;99763.73;1563577;91;21037;-74
2022/06/25 08:14:40;;;;;;;6.42;3.05;;;;;;;24.66;44.34;99757.86;1563527;91;21722;-74
2022/06/25 08:17:07;;;;;;;3.92;3.25;;;;;;;24.67;44.47;99750.42;1560197;91;21114;-74
2022/06/25 08:19:35;;;;;;;2.75;2.55;;;;;;;24.71;44.26;99748.02;1553590;92;21124;-76
2022/06/25 08:22:03;;;;;;;8.75;3.00;;;;;;;24.72;43.91;99744.13;1558017;91;21137;-76
2022/06/25 08:24:29;;;;;;;4.25;2.67;;;;;;;24.74;43.70;99748.73;1541714;92;21117;-76
2022/06/25 08:26:56;;;;;;;3.25;2.75;;;;;;;24.79;43.66;99739.44;1559880;91;21082;-77
2022/06/25 08:29:23;;;;;;;3.00;2.47;;;;;;;24.83;43.45;99747.80;1564832;90;21575;-77
2022/06/25 08:31:50;;;;;;;3.30;2.87;;;;;;;24.84;43.40;99749.41;1577320;90;21533;-78
2022/06/25 08:34:16;;;;;;;4.37;2.60;;;;;;;24.90;43.00;99753.55;1579586;90;21137;-79
2022/06/25 08:36:43;;;;;;;4.42;2.55;;;;;;;24.97;43.28;99751.05;1563659;90;21142;-79
2022/06/25 08:39:09;;;;;;;6.45;3.70;;;;;;;25.03;42.62;99747.73;1559451;90;21581;-77
2022/06/25 08:41:36;;;;;;;4.40;2.30;;;;;;;25.09;42.71;99755.16;1558334;90;21086;-77
2022/06/25 08:44:04;;;;;;;3.90;2.83;;;;;;;25.17;42.87;99751.51;1539559;92;21112;-74
2022/06/25 08:46:31;;;;;;;3.87;2.95;;;;;;;25.27;43.27;99751.61;1557388;91;21194;-78
2022/06/25 08:48:58;;;;;;;6.50;2.80;;;;;;;25.33;42.99;99755.71;1538576;92;20990;-76
2022/06/25 08:51:27;;;;;;;7.00;3.47;;;;;;;25.33;43.34;99752.95;1558973;91;21129;-76
2022/06/25 08:53:58;;;;;;;2.75;2.47;;;;;;;25.35;42.87;99757.56;1552566;91;21093;-75
2022/06/25 08:56:24;;;;;;;6.67;3.15;;;;;;;25.40;42.78;99765.02;1546923;91;21358;-75
2022/06/25 08:58:51;;;;;;;6.97;2.50;;;;;;;25.40;42.13;99752.62;1548256;91;21257;-74
2022/06/25 09:01:17;;;;;;;8.03;2.75;;;;;;;25.39;42.12;99763.97;1553256;91;21118;-74
2022/06/25 09:03:44;;;;;;;4.17;3.35;;;;;;;25.30;42.23;99759.97;1546748;92;21563;-76
2022/06/25 09:06:17;;;;;;;4.90;2.95;;;;;;;25.29;42.18;99769.38;1546668;92;21089;-75
2022/06/25 09:08:47;;;;;;;9.83;3.12;;;;;;;25.30;42.28;99761.35;1546706;92;21201;-77
2022/06/25 09:11:14;;;;;;;3.47;2.35;;;;;;;25.37;42.60;99764.30;1548630;91;21030;-70
2022/06/25 09:13:43;;;;;;;5.40;3.00;;;;;;;25.45;42.21;99760.64;1547788;91;21145;-74
2022/06/25 09:16:15;;;;;;;5.33;2.77;;;;;;;25.53;42.01;99758.33;1552630;91;21061;-71
2022/06/25 09:18:41;;;;;;;4.50;2.47;;;;;;;25.56;42.05;99756.27;1564807;91;21169;-76
2022/06/25 09:21:08;;;;;;;7.10;2.75;;;;;;;25.61;42.25;99775.92;1511243;92;21123;-73
2022/06/25 09:23:55;;;;;;;2.70;2.50;;;;;;;25.59;42.17;99761.67;1548349;92;21110;-73
2022/06/25 09:26:22;;;;;;;4.58;2.90;;;;;;;25.66;42.34;99759.12;1531585;91;21089;-75
2022/06/25 09:28:48;;;;;;;3.20;2.50;;;;;;;25.78;42.79;99762.42;1548273;91;21101;-75
2022/06/25 09:31:36;;;;;;;6.50;2.72;;;;;;;25.92;42.30;99764.22;1553502;91;21598;-76
2022/06/25 09:34:05;;;;;;;3.60;3.08;;;;;;;25.97;42.20;99762.02;1546227;91;21194;-75
2022/06/25 09:36:32;;;;;;;4.25;3.85;;;;;;;26.07;41.76;99766.23;1549189;91;21118;-74
2022/06/25 09:38:58;;;;;;;3.90;3.00;;;;;;;26.14;41.20;99762.27;1548281;92;20996;-74
2022/06/25 09:41:26;;;;;;;3.22;2.22;;;;;;;26.22;40.73;99757.23;1548265;92;21166;-74
2022/06/25 09:43:52;;;;;;;2.42;1.98;;;;;;;26.31;40.75;99764.77;1553443;91;21089;-74
2022/06/25 09:46:19;;;;;;;3.65;1.82;;;;;;;26.43;40.90;99766.06;1550366;91;21582;-74
2022/06/25 09:48:46;;;;;;;3.33;2.35;;;;;;;26.47;39.96;99766.95;1568752;91;21106;-75
2022/06/25 09:51:26;;;;;;;2.55;2.35;;;;;;;26.52;39.63;99765.92;1568684;91;21026;-75
2022/06/25 09:53:54;;;;;;;2.85;2.50;;;;;;;26.54;39.50;99761.41;1560317;91;21074;-73
2022/06/25 09:56:31;;;;;;;12.73;3.13;;;;;;;26.58;40.35;99763.67;1552813;91;21276;-78
2022/06/25 09:58:58;;;;;;;3.80;2.72;;;;;;;26.57;40.89;99767.01;1548274;92;21209;-77
2022/06/25 10:01:28;;;;;;;4.12;2.83;;;;;;;26.55;40.20;99752.78;1548282;92;21039;-74
2022/06/25 10:03:57;;;;;;;4.35;2.42;;;;;;;26.53;40.14;99759.22;1552664;91;21047;-75
2022/06/25 10:06:24;;;;;;;2.40;2.20;;;;;;;26.58;39.86;99760.91;1548322;91;21066;-74
2022/06/25 10:08:54;;;;;;;2.70;2.50;;;;;;;26.65;39.79;99759.16;1548240;92;21101;-77
2022/06/25 10:11:26;;;;;;;2.52;2.33;;;;;;;26.74;39.75;99760.36;1548163;91;21157;-77
2022/06/25 10:13:55;;;;;;;5.53;2.70;;;;;;;26.82;39.98;99767.07;1554917;91;21584;-74
2022/06/25 10:16:25;;;;;;;2.72;2.52;;;;;;;26.80;39.19;99772.16;1553236;91;21119;-73
2022/06/25 10:18:53;;;;;;;2.80;2.60;;;;;;;26.73;39.14;99764.27;1548916;91;37973;-73
2022/06/25 10:21:22;;;;;;;4.53;3.15;;;;;;;26.70;39.32;99763.03;1564757;91;21242;-75
2022/06/25 10:23:57;;;;;;;3.15;2.33;;;;;;;26.75;39.01;99754.48;1568027;90;21380;-73
2022/06/25 10:26:24;;;;;;;2.75;2.55;;;;;;;26.86;39.45;99765.23;1549644;92;21019;-74
2022/06/25 10:28:50;;;;;;;2.35;2.15;;;;;;;27.03;39.75;99761.31;1551692;92;21607;-76
2022/06/25 10:31:18;;;;;;;10.05;2.35;;;;;;;27.15;38.98;99757.63;1578368;89;21074;-74
2022/06/25 10:33:55;;;;;;;4.85;2.70;;;;;;;27.08;38.84;99753.34;1600466;88;21520;-76
2022/06/25 10:36:42;;;;;;;4.62;3.40;;;;;;;27.07;39.43;99763.58;1604706;89;21120;-77
2022/06/25 10:39:33;;;;;;;4.00;2.50;;;;;;;27.20;39.82;99756.78;1588836;88;20990;-76
2022/06/25 10:47:39;;;;;;;5.08;2.67;;;;;;;27.50;38.13;99751.58;1671452;83;20937;-71
2022/06/25 10:50:26;;;;;;;2.72;2.52;;;;;;;27.58;38.14;99756.66;1694213;83;21122;-68
2022/06/25 10:53:10;;;;;;;7.03;2.65;;;;;;;27.60;37.50;99757.12;1699555;83;21001;-69
2022/06/25 10:55:51;;;;;;;5.30;2.15;;;;;;;27.50;37.94;99755.72;1659414;85;21068;-71
2022/06/25 10:58:23;;;;;;;8.50;3.30;;;;;;;27.43;37.72;99761.65;1670888;85;20980;-67
2022/06/25 11:00:58;;;;;;;2.63;2.43;;;;;;;27.46;37.93;99763.68;1670424;85;21093;-69
2022/06/25 11:03:35;;;;;;;5.67;2.25;;;;;;;27.51;37.97;99756.53;1671139;84;21322;-68
2022/06/25 11:06:32;;;;;;;6.03;2.42;;;;;;;27.60;37.83;99752.39;1660072;85;21077;-69
2022/06/25 11:09:09;;;;;;;9.65;3.05;;;;;;;27.69;38.13;99750.22;1669484;86;20993;-70
2022/06/25 11:11:38;;;;;;;4.95;2.70;;;;;;;27.78;37.70;99754.14;1669370;85;21626;-71
2022/06/25 11:14:22;;;;;;;4.42;3.15;;;;;;;27.77;37.77;99755.91;1663282;85;21073;-73
2022/06/25 11:16:50;;;;;;;3.55;2.45;;;;;;;27.78;36.86;99756.10;1656138;86;21130;-77
2022/06/25 11:19:18;;;;;;;4.78;2.55;;;;;;;27.79;36.95;99756.33;1669707;85;21064;-78
2022/06/25 11:21:45;;;;;;;4.35;3.10;;;;;;;27.81;36.74;99754.82;1671056;85;20937;-77
2022/06/25 11:24:23;;;;;;;5.00;2.47;;;;;;;27.78;36.47;99761.63;1670938;85;20941;-80
2022/06/25 11:29:54;;;;;;;9.10;2.42;;;;;;;27.73;35.44;99759.95;1669538;86;21166;-78
2022/06/25 11:32:26;;;;;;;15.00;12.28;;;;;;;27.79;35.74;99748.84;1669020;86;21111;-78
2022/06/25 11:34:59;;;;;;;11.83;9.53;;;;;;;27.90;35.66;99748.48;1648585;86;21073;-72
2022/06/25 11:37:26;;;;;;;4.12;3.10;;;;;;;28.05;35.63;99750.95;1647667;85;21060;-70
2022/06/25 11:39:53;;;;;;;3.58;2.27;;;;;;;28.20;34.94;99749.30;1649270;85;21045;-70
2022/06/25 11:42:21;;;;;;;6.55;3.62;;;;;;;28.27;34.42;99738.35;1669641;86;22219;-71
2022/06/25 11:44:51;;;;;;;3.47;3.17;;;;;;;28.40;34.55;99750.84;1669680;86;21525;-77
2022/06/25 11:47:22;;;;;;;2.77;2.27;;;;;;;28.41;34.67;99739.41;1660246;85;21151;-72
2022/06/25 11:49:49;;;;;;;10.53;2.72;;;;;;;28.49;35.54;99741.74;1680345;85;21080;-72
2022/06/25 11:52:20;;;;;;;2.47;2.27;;;;;;;28.59;35.71;99732.22;1664696;85;21064;-69
2022/06/25 11:54:47;;;;;;;2.65;2.45;;;;;;;28.60;35.72;99735.20;1682466;83;21136;-70
2022/06/25 11:57:27;;;;;;;3.40;2.30;;;;;;;28.53;34.75;99743.98;1710353;83;20991;-70
2022/06/25 11:59:55;;;;;;;2.30;2.20;;;;;;;28.38;34.96;99742.92;1710478;83;21020;-70
2022/06/25 12:02:22;;;;;;;3.55;2.20;;;;;;;28.27;35.56;99740.53;1664894;83;21112;-71
2022/06/25 12:04:57;;;;;;;3.17;2.87;;;;;;;28.29;36.08;99749.87;1663640;85;21528;-71